Time;durP1;ratioP1;P1;durP2;ratioP2;P2;SDS_P1;SDS_P2;PMS_P1;PMS_P2;Temp;Humidity;BMP_temperature;BMP_pressure;BME280_temperature;BME280_humidity;BME280_pressure;Samples;Min_cycle;Max_cycle;Signal;HPM_P1;HPM_P2
2021/08/28 00:01:55;;;;;;;18.40;4.50;;;;;;;-146.90;100.00;60518.97;5051912;28;20043;-69
2021/08/28 00:04:20;;;;;;;18.30;4.70;;;;;;;-146.90;100.00;60518.97;5051358;28;20075;-69
2021/08/28 00:06:46;;;;;;;22.33;4.82;;;;;;;-146.90;100.00;60518.97;5051274;28;20199;-69
2021/08/28 00:09:11;;;;;;;15.82;5.05;;;;;;;-146.90;100.00;60518.97;5051054;28;20174;-69
2021/08/28 00:11:36;;;;;;;21.20;4.70;;;;;;;-146.90;100.00;60518.97;5050839;28;20075;-70
2021/08/28 00:14:02;;;;;;;15.10;4.30;;;;;;;-146.90;100.00;60518.97;5051365;28;20025;-69
2021/08/28 00:16:27;;;;;;;17.05;5.45;;;;;;;-146.90;100.00;60518.97;5050424;28;20025;-70
2021/08/28 00:18:53;;;;;;;22.70;5.43;;;;;;;-146.90;100.00;60518.97;5051214;28;20139;-70
2021/08/28 00:21:18;;;;;;;18.58;4.90;;;;;;;-146.90;100.00;60518.97;5050531;28;20017;-68
2021/08/28 00:23:43;;;;;;;16.25;4.68;;;;;;;-146.90;100.00;60518.97;5050428;28;20025;-69
2021/08/28 00:26:09;;;;;;;15.90;4.80;;;;;;;-146.90;100.00;60518.97;5050810;28;20025;-68
2021/08/28 00:28:34;;;;;;;18.67;4.78;;;;;;;-146.90;100.00;60518.97;5050359;28;20025;-70
2021/08/28 00:30:59;;;;;;;18.73;4.63;;;;;;;-146.90;100.00;60518.97;5050721;28;20128;-70
2021/08/28 00:33:25;;;;;;;17.38;4.55;;;;;;;-146.90;100.00;60518.97;5049767;28;20104;-70
2021/08/28 00:35:50;;;;;;;16.83;4.50;;;;;;;-146.90;100.00;60518.97;5050889;28;20076;-69
2021/08/28 00:38:15;;;;;;;17.95;5.25;;;;;;;-146.90;100.00;60518.97;5050942;28;20029;-69
2021/08/28 00:40:41;;;;;;;18.50;5.50;;;;;;;-146.90;100.00;60518.97;5049320;28;20482;-68
2021/08/28 00:43:07;;;;;;;13.88;5.05;;;;;;;-146.90;100.00;60518.97;5050390;28;20082;-70
2021/08/28 00:45:35;;;;;;;18.63;4.90;;;;;;;-146.90;100.00;60518.97;5049173;28;20025;-70
2021/08/28 00:48:04;;;;;;;18.98;4.90;;;;;;;-146.90;100.00;60518.97;5049819;28;20021;-70
2021/08/28 00:50:31;;;;;;;18.15;5.28;;;;;;;-146.90;100.00;60518.97;5050211;28;20017;-71
2021/08/28 00:52:56;;;;;;;17.70;4.95;;;;;;;-146.90;100.00;60518.97;5049623;28;20371;-70
2021/08/28 00:55:25;;;;;;;16.27;4.88;;;;;;;-146.90;100.00;60518.97;5050284;28;20347;-69
2021/08/28 00:57:51;;;;;;;13.75;4.30;;;;;;;-146.90;100.00;60518.97;5049746;28;20033;-69
2021/08/28 01:00:17;;;;;;;19.73;4.47;;;;;;;-146.90;100.00;60518.97;5050281;28;20041;-69
2021/08/28 01:02:44;;;;;;;15.60;4.50;;;;;;;-146.90;100.00;60518.97;5049006;28;20083;-69
2021/08/28 01:05:22;;;;;;;15.52;4.63;;;;;;;-146.90;100.00;60518.97;5049188;28;20367;-69
2021/08/28 01:08:19;;;;;;;13.52;4.75;;;;;;;-146.90;100.00;60518.97;5050349;28;20087;-71
2021/08/28 01:10:51;;;;;;;14.95;4.35;;;;;;;-146.90;100.00;60518.97;5031060;28;20048;-69
2021/08/28 01:13:17;;;;;;;24.42;5.85;;;;;;;-146.90;100.00;60518.97;5048741;28;20039;-69
2021/08/28 01:15:44;;;;;;;16.50;4.57;;;;;;;-146.90;100.00;60518.97;5049266;28;20028;-70
2021/08/28 01:18:11;;;;;;;14.60;5.10;;;;;;;-146.90;100.00;60518.97;5031961;28;20112;-68
2021/08/28 01:20:45;;;;;;;16.55;4.68;;;;;;;-146.90;100.00;60518.97;5048603;28;20036;-70
2021/08/28 01:23:11;;;;;;;15.80;4.43;;;;;;;-146.90;100.00;60518.97;5031461;28;20029;-69
2021/08/28 01:25:37;;;;;;;19.40;5.45;;;;;;;-146.90;100.00;60518.97;5048446;28;20051;-70
2021/08/28 01:28:06;;;;;;;22.38;5.18;;;;;;;-146.90;100.00;60518.97;5047979;28;20466;-70
2021/08/28 01:30:33;;;;;;;14.20;4.50;;;;;;;-146.90;100.00;60518.97;5049397;28;20203;-68
2021/08/28 01:33:01;;;;;;;19.70;4.47;;;;;;;-146.90;100.00;60518.97;5048049;28;20035;-69
2021/08/28 01:35:26;;;;;;;15.43;4.75;;;;;;;-146.90;100.00;60518.97;5048381;28;20024;-68
2021/08/28 01:37:52;;;;;;;13.45;4.25;;;;;;;-146.90;100.00;60518.97;5048210;28;20048;-69
2021/08/28 01:40:18;;;;;;;16.58;5.28;;;;;;;-146.90;100.00;60518.97;5047961;28;20032;-69
2021/08/28 01:42:44;;;;;;;18.85;5.15;;;;;;;-146.90;100.00;60518.97;5048227;28;20043;-69
2021/08/28 01:45:11;;;;;;;22.17;5.53;;;;;;;-146.90;100.00;60518.97;5047869;28;20028;-70
2021/08/28 01:47:38;;;;;;;16.77;4.60;;;;;;;-146.90;100.00;60518.97;5048052;28;20397;-69
2021/08/28 01:50:04;;;;;;;20.10;5.18;;;;;;;-146.90;100.00;60518.97;5047573;28;20021;-70
2021/08/28 01:52:29;;;;;;;21.77;5.38;;;;;;;-146.90;100.00;60518.97;5048028;28;20483;-70
2021/08/28 01:54:55;;;;;;;18.85;5.07;;;;;;;-146.90;100.00;60518.97;5048839;28;20220;-71
2021/08/28 01:57:20;;;;;;;16.58;4.57;;;;;;;-146.90;100.00;60518.97;5049427;28;20029;-69
2021/08/28 01:59:45;;;;;;;13.82;4.35;;;;;;;-146.90;100.00;60518.97;5047584;28;20025;-70
2021/08/28 02:02:11;;;;;;;14.05;4.35;;;;;;;-146.90;100.00;60518.97;5049303;28;20112;-69
2021/08/28 02:04:37;;;;;;;14.15;4.80;;;;;;;-146.90;100.00;60518.97;5048792;28;20470;-70
2021/08/28 02:07:26;;;;;;;19.58;5.15;;;;;;;-146.90;100.00;60518.97;5048029;28;20021;-70
2021/08/28 02:10:01;;;;;;;14.48;4.45;;;;;;;-146.90;100.00;60518.97;5048958;28;20021;-69
2021/08/28 02:12:33;;;;;;;18.10;4.95;;;;;;;-146.90;100.00;60518.97;5047796;28;20029;-69
2021/08/28 02:15:07;;;;;;;17.25;4.72;;;;;;;-146.90;100.00;60518.97;5034849;28;20059;-70
2021/08/28 02:17:39;;;;;;;14.93;5.05;;;;;;;-146.90;100.00;60518.97;5053213;28;20417;-70
2021/08/28 02:20:05;;;;;;;18.90;5.03;;;;;;;-146.90;100.00;60518.97;5052977;28;20021;-69
2021/08/28 02:22:34;;;;;;;14.77;5.30;;;;;;;-146.90;100.00;60518.97;5051819;28;20033;-70
2021/08/28 02:25:04;;;;;;;17.70;4.30;;;;;;;-146.90;100.00;60518.97;5053292;28;20113;-70
2021/08/28 02:27:32;;;;;;;19.77;4.40;;;;;;;-146.90;100.00;60518.97;5052142;28;20068;-70
2021/08/28 02:30:02;;;;;;;13.10;4.15;;;;;;;-146.90;100.00;60518.97;5051885;28;20079;-71
2021/08/28 02:32:28;;;;;;;18.65;4.70;;;;;;;-146.90;100.00;60518.97;5051480;28;20124;-69
2021/08/28 02:34:55;;;;;;;20.50;5.47;;;;;;;-146.90;100.00;60518.97;5051784;28;20104;-69
2021/08/28 02:37:22;;;;;;;19.70;4.90;;;;;;;-146.90;100.00;60518.97;5053113;28;20033;-70
2021/08/28 02:39:47;;;;;;;16.05;4.07;;;;;;;-146.90;100.00;60518.97;5051671;28;20074;-70
2021/08/28 02:42:13;;;;;;;16.75;5.00;;;;;;;-146.90;100.00;60518.97;5052402;28;20107;-70
2021/08/28 02:44:41;;;;;;;14.55;4.82;;;;;;;-146.90;100.00;60518.97;5051188;28;20416;-70
2021/08/28 02:47:07;;;;;;;15.45;5.47;;;;;;;-146.90;100.00;60518.97;5052525;28;20028;-70
2021/08/28 02:49:34;;;;;;;17.05;4.25;;;;;;;-146.90;100.00;60518.97;5051371;28;20025;-69
2021/08/28 02:52:00;;;;;;;12.65;4.30;;;;;;;-146.90;100.00;60518.97;5050908;28;20055;-70
2021/08/28 02:54:26;;;;;;;17.60;4.05;;;;;;;-146.90;100.00;60518.97;5052549;28;20032;-70
2021/08/28 02:56:51;;;;;;;11.02;3.92;;;;;;;-146.90;100.00;60518.97;5051204;28;20024;-70
2021/08/28 02:59:17;;;;;;;13.18;4.57;;;;;;;-146.90;100.00;60518.97;5050987;28;20036;-69
2021/08/28 03:01:43;;;;;;;11.98;4.57;;;;;;;-146.90;100.00;60518.97;5034317;28;20327;-69
2021/08/28 03:04:09;;;;;;;10.70;3.40;;;;;;;-146.90;100.00;60518.97;5050869;28;20092;-70
2021/08/28 03:06:35;;;;;;;16.05;3.70;;;;;;;-146.90;100.00;60518.97;5050929;28;20102;-70
2021/08/28 03:09:00;;;;;;;12.05;4.00;;;;;;;-146.90;100.00;60518.97;5052077;28;20063;-71
2021/08/28 03:11:26;;;;;;;11.65;3.92;;;;;;;-146.90;100.00;60518.97;5051159;28;20462;-70
2021/08/28 03:13:52;;;;;;;11.70;3.60;;;;;;;-146.90;100.00;60518.97;5050571;28;20028;-68
2021/08/28 03:16:21;;;;;;;12.38;3.78;;;;;;;-146.90;100.00;60518.97;5050602;28;20584;-71
2021/08/28 03:18:47;;;;;;;13.13;3.83;;;;;;;-146.90;100.00;60518.97;5050501;28;20552;-70
2021/08/28 03:21:13;;;;;;;9.93;3.20;;;;;;;-146.90;100.00;60518.97;5050970;28;20017;-69
2021/08/28 03:23:39;;;;;;;9.88;3.40;;;;;;;-146.90;100.00;60518.97;5050435;28;20029;-70
2021/08/28 03:26:05;;;;;;;10.55;3.25;;;;;;;-146.90;100.00;60518.97;5050248;28;20106;-70
2021/08/28 03:28:31;;;;;;;11.10;3.08;;;;;;;-146.90;100.00;60518.97;5050344;28;20083;-70
2021/08/28 03:30:57;;;;;;;10.18;3.33;;;;;;;-146.90;100.00;60518.97;5052018;28;20509;-70
2021/08/28 03:33:22;;;;;;;12.25;3.30;;;;;;;-146.90;100.00;60518.97;5051515;28;20059;-69
2021/08/28 03:35:49;;;;;;;12.57;3.60;;;;;;;-146.90;100.00;60518.97;5051392;28;20040;-70
2021/08/28 03:38:14;;;;;;;10.57;3.47;;;;;;;-146.90;100.00;60518.97;5051045;28;20024;-69
2021/08/28 03:40:40;;;;;;;9.80;3.35;;;;;;;-146.90;100.00;60518.97;5051929;28;20020;-70
2021/08/28 03:43:05;;;;;;;13.43;3.50;;;;;;;-146.90;100.00;60518.97;5049644;28;20687;-71
2021/08/28 03:45:31;;;;;;;14.40;3.90;;;;;;;-146.90;100.00;60518.97;5050346;28;20033;-70
2021/08/28 03:47:57;;;;;;;11.77;3.55;;;;;;;-146.90;100.00;60518.97;5051250;28;20028;-69
2021/08/28 03:50:22;;;;;;;12.43;4.07;;;;;;;-146.90;100.00;60518.97;5033251;28;20029;-70
2021/08/28 03:52:48;;;;;;;9.55;3.42;;;;;;;-146.90;100.00;60518.97;5051187;28;20489;-69
2021/08/28 03:55:13;;;;;;;10.85;3.35;;;;;;;-146.90;100.00;60518.97;5050337;28;20024;-71
2021/08/28 03:57:39;;;;;;;15.32;3.78;;;;;;;-146.90;100.00;60518.97;5049704;28;20068;-70
2021/08/28 04:00:05;;;;;;;15.02;4.05;;;;;;;-146.90;100.00;60518.97;5049850;28;20021;-70
2021/08/28 04:02:30;;;;;;;17.85;4.63;;;;;;;-146.90;100.00;60518.97;5051463;28;20047;-70
2021/08/28 04:04:56;;;;;;;11.93;3.63;;;;;;;-146.90;100.00;60518.97;5051251;28;20025;-69
2021/08/28 04:07:21;;;;;;;11.75;3.90;;;;;;;-146.90;100.00;60518.97;5050924;28;20029;-70
2021/08/28 04:09:46;;;;;;;10.70;3.53;;;;;;;-146.90;100.00;60518.97;5050770;28;20406;-70
2021/08/28 04:12:12;;;;;;;11.13;3.78;;;;;;;-146.90;100.00;60518.97;5051071;28;20387;-69
2021/08/28 04:14:37;;;;;;;14.35;4.20;;;;;;;-146.90;100.00;60518.97;5050480;28;20382;-70
2021/08/28 04:17:02;;;;;;;11.52;3.90;;;;;;;-146.90;100.00;60518.97;5050941;28;20078;-70
2021/08/28 04:19:28;;;;;;;15.35;4.57;;;;;;;-146.90;100.00;60518.97;5050708;28;20094;-69
2021/08/28 04:21:53;;;;;;;12.30;4.45;;;;;;;-146.90;100.00;60518.97;5050949;28;20412;-70
2021/08/28 04:24:18;;;;;;;12.80;4.70;;;;;;;-146.90;100.00;60518.97;5050619;28;20441;-69
2021/08/28 04:26:44;;;;;;;15.27;4.50;;;;;;;-146.90;100.00;60518.97;5050781;28;20540;-69
2021/08/28 04:29:09;;;;;;;16.13;4.47;;;;;;;-146.90;100.00;60518.97;5050452;28;20048;-68
2021/08/28 04:31:34;;;;;;;13.35;4.63;;;;;;;-146.90;100.00;60518.97;5051068;28;20035;-69
2021/08/28 04:34:00;;;;;;;15.02;4.60;;;;;;;-146.90;100.00;60518.97;5050853;28;20078;-69
2021/08/28 04:36:25;;;;;;;12.02;3.90;;;;;;;-146.90;100.00;60518.97;5050688;28;20060;-70
2021/08/28 04:38:50;;;;;;;12.32;4.15;;;;;;;-146.90;100.00;60518.97;5050979;28;20115;-69
2021/08/28 04:41:16;;;;;;;17.23;4.30;;;;;;;-146.90;100.00;60518.97;5051148;28;20384;-69
2021/08/28 04:43:41;;;;;;;14.35;3.75;;;;;;;-146.90;100.00;60518.97;5050512;28;20040;-71
2021/08/28 04:46:06;;;;;;;13.45;4.63;;;;;;;-146.90;100.00;60518.97;5051046;28;20024;-68
2021/08/28 04:48:32;;;;;;;14.80;3.83;;;;;;;-146.90;100.00;60518.97;5050233;28;20108;-68
2021/08/28 04:50:58;;;;;;;16.98;4.03;;;;;;;-146.90;100.00;60518.97;5049718;28;20105;-71
2021/08/28 04:53:23;;;;;;;13.13;4.10;;;;;;;-146.90;100.00;60518.97;5049806;28;20112;-69
2021/08/28 04:55:49;;;;;;;16.90;4.15;;;;;;;-146.90;100.00;60518.97;5050582;28;20103;-69
2021/08/28 04:58:14;;;;;;;13.70;4.18;;;;;;;-146.90;100.00;60518.97;5048741;28;20041;-69
2021/08/28 05:00:39;;;;;;;8.52;3.78;;;;;;;-146.90;100.00;60518.97;5049973;28;20442;-69
2021/08/28 05:03:05;;;;;;;12.82;3.50;;;;;;;-146.90;100.00;60518.97;5049798;28;20678;-70
2021/08/28 05:05:30;;;;;;;17.73;5.63;;;;;;;-146.90;100.00;60518.97;5050027;28;20114;-68
2021/08/28 05:07:55;;;;;;;15.52;4.22;;;;;;;-146.90;100.00;60518.97;5050025;28;20028;-70
2021/08/28 05:10:21;;;;;;;16.95;4.13;;;;;;;-146.90;100.00;60518.97;5049469;28;20057;-70
2021/08/28 05:12:46;;;;;;;16.75;4.40;;;;;;;-146.90;100.00;60518.97;5049644;28;20055;-69
2021/08/28 05:15:12;;;;;;;13.07;4.28;;;;;;;-146.90;100.00;60518.97;5049975;28;20056;-70
2021/08/28 05:17:37;;;;;;;12.30;3.78;;;;;;;-146.90;100.00;60518.97;5049554;28;20029;-70
2021/08/28 05:20:03;;;;;;;11.98;4.03;;;;;;;-146.90;100.00;60518.97;5050033;28;20021;-70
2021/08/28 05:22:28;;;;;;;13.98;3.55;;;;;;;-146.90;100.00;60518.97;5049500;28;20032;-70
2021/08/28 05:24:53;;;;;;;11.55;3.97;;;;;;;-146.90;100.00;60518.97;5049699;28;20025;-69
2021/08/28 05:27:19;;;;;;;11.55;3.67;;;;;;;-146.90;100.00;60518.97;5049342;28;20044;-69
2021/08/28 05:29:44;;;;;;;10.85;3.20;;;;;;;-146.90;100.00;60518.97;5049427;28;20082;-70
2021/08/28 05:32:09;;;;;;;11.48;3.70;;;;;;;-146.90;100.00;60518.97;5049331;28;20064;-69
2021/08/28 05:34:35;;;;;;;10.93;4.00;;;;;;;-146.90;100.00;60518.97;5049180;28;20087;-72
2021/08/28 05:37:00;;;;;;;12.23;3.42;;;;;;;-146.90;100.00;60518.97;5049997;28;20028;-69
2021/08/28 05:39:26;;;;;;;13.00;3.40;;;;;;;-146.90;100.00;60518.97;5049490;28;20037;-70
2021/08/28 05:41:51;;;;;;;11.95;3.30;;;;;;;-146.90;100.00;60518.97;5049479;28;20032;-70
2021/08/28 05:44:16;;;;;;;9.73;3.40;;;;;;;-146.90;100.00;60518.97;5049500;28;20029;-68
2021/08/28 05:46:42;;;;;;;10.70;3.55;;;;;;;-146.90;100.00;60518.97;5049147;28;20028;-70
2021/08/28 05:49:07;;;;;;;11.90;3.75;;;;;;;-146.90;100.00;60518.97;5047884;28;20020;-69
2021/08/28 05:51:32;;;;;;;9.40;3.40;;;;;;;-146.90;100.00;60518.97;5049130;28;20528;-69
2021/08/28 05:53:58;;;;;;;10.68;3.58;;;;;;;-146.90;100.00;60518.97;5049533;28;20092;-68
2021/08/28 05:56:23;;;;;;;15.35;3.80;;;;;;;-146.90;100.00;60518.97;5031880;28;20370;-70
2021/08/28 05:58:48;;;;;;;13.30;4.43;;;;;;;-146.90;100.00;60518.97;5048953;28;20493;-69
2021/08/28 06:01:14;;;;;;;8.35;3.40;;;;;;;-146.90;100.00;60518.97;5049662;28;20466;-70
2021/08/28 06:03:39;;;;;;;12.82;3.50;;;;;;;-146.90;100.00;60518.97;5049142;28;20028;-70
2021/08/28 06:06:04;;;;;;;17.33;3.88;;;;;;;-146.90;100.00;60518.97;5049451;28;20083;-69
2021/08/28 06:08:30;;;;;;;17.45;3.50;;;;;;;-146.90;100.00;60518.97;5049159;28;20092;-69
2021/08/28 06:10:55;;;;;;;12.45;3.55;;;;;;;-146.90;100.00;60518.97;5049252;28;20028;-69
2021/08/28 06:13:20;;;;;;;12.25;3.72;;;;;;;-146.90;100.00;60518.97;5048850;28;20036;-69
2021/08/28 06:15:46;;;;;;;11.60;3.63;;;;;;;-146.90;100.00;60518.97;5048355;28;20021;-70
2021/08/28 06:18:11;;;;;;;8.70;3.30;;;;;;;-146.90;100.00;60518.97;5048791;28;20037;-70
2021/08/28 06:20:37;;;;;;;8.50;3.50;;;;;;;-146.90;100.00;60518.97;5049377;28;20021;-70
2021/08/28 06:23:02;;;;;;;8.07;3.40;;;;;;;-146.90;100.00;60518.97;5048692;28;20111;-69
2021/08/28 06:25:27;;;;;;;15.40;3.80;;;;;;;-146.90;100.00;60518.97;5048984;28;20463;-70
2021/08/28 06:27:53;;;;;;;14.35;3.65;;;;;;;-146.90;100.00;60518.97;5048393;28;20486;-69
2021/08/28 06:30:18;;;;;;;9.43;3.10;;;;;;;-146.90;100.00;60518.97;5048842;28;20116;-70
2021/08/28 06:32:43;;;;;;;9.25;3.20;;;;;;;-146.90;100.00;60518.97;5048279;28;20135;-69
2021/08/28 06:35:09;;;;;;;11.55;4.10;;;;;;;-146.90;100.00;60518.97;5049054;28;20112;-69
2021/08/28 06:37:34;;;;;;;13.07;3.95;;;;;;;-146.90;100.00;60518.97;5049091;28;20032;-70
2021/08/28 06:40:00;;;;;;;13.43;3.90;;;;;;;-146.90;100.00;60518.97;5048916;28;20179;-69
2021/08/28 06:42:25;;;;;;;14.07;4.82;;;;;;;-146.90;100.00;60518.97;5049327;28;20059;-69
2021/08/28 06:44:50;;;;;;;13.55;3.80;;;;;;;-146.90;100.00;60518.97;5048916;28;20438;-68
2021/08/28 06:47:15;;;;;;;13.40;3.80;;;;;;;-146.90;100.00;60518.97;5048706;28;20410;-68
2021/08/28 06:49:41;;;;;;;11.65;3.65;;;;;;;-146.90;100.00;60518.97;5047736;28;20033;-71
2021/08/28 06:52:06;;;;;;;14.27;3.95;;;;;;;-146.90;100.00;60518.97;5047142;28;20052;-69
2021/08/28 06:54:32;;;;;;;13.55;4.18;;;;;;;-146.90;100.00;60518.97;5048218;28;20021;-69
2021/08/28 06:56:57;;;;;;;10.30;3.60;;;;;;;-146.90;100.00;60518.97;5047185;28;20021;-69
2021/08/28 06:59:22;;;;;;;14.10;4.80;;;;;;;-146.90;100.00;60518.97;5046479;28;20122;-69
2021/08/28 07:01:48;;;;;;;14.02;4.10;;;;;;;-146.90;100.00;60518.97;5052055;28;20017;-69
2021/08/28 07:04:13;;;;;;;13.93;4.15;;;;;;;-146.90;100.00;60518.97;5051694;28;20114;-69
2021/08/28 07:06:38;;;;;;;14.98;3.78;;;;;;;-146.90;100.00;60518.97;5052351;28;20478;-72
2021/08/28 07:09:04;;;;;;;12.93;4.07;;;;;;;-146.90;100.00;60518.97;5051625;28;20032;-69
2021/08/28 07:11:29;;;;;;;14.73;4.00;;;;;;;-146.90;100.00;60518.97;5050740;28;20029;-69
2021/08/28 07:13:54;;;;;;;21.77;4.22;;;;;;;-146.90;100.00;60518.97;5051804;28;20059;-71
2021/08/28 07:16:20;;;;;;;16.70;4.07;;;;;;;-146.90;100.00;60518.97;5052084;28;20059;-69
2021/08/28 07:18:45;;;;;;;13.93;3.95;;;;;;;-146.90;100.00;60518.97;5051968;28;20024;-70
2021/08/28 07:21:11;;;;;;;17.80;4.53;;;;;;;-146.90;100.00;60518.97;5051585;28;20494;-69
2021/08/28 07:23:36;;;;;;;14.38;3.95;;;;;;;-146.90;100.00;60518.97;5051608;28;20021;-69
2021/08/28 07:26:01;;;;;;;16.15;4.35;;;;;;;-146.90;100.00;60518.97;5051446;28;20021;-69
2021/08/28 07:28:27;;;;;;;13.38;3.55;;;;;;;-146.90;100.00;60518.97;5051915;28;20029;-69
2021/08/28 07:30:52;;;;;;;12.70;4.05;;;;;;;-146.90;100.00;60518.97;5050128;28;20104;-71
2021/08/28 07:33:18;;;;;;;12.50;3.60;;;;;;;-146.90;100.00;60518.97;5051458;28;20405;-69
2021/08/28 07:35:43;;;;;;;13.88;4.32;;;;;;;-146.90;100.00;60518.97;5050165;28;20024;-71
2021/08/28 07:38:08;;;;;;;12.48;4.03;;;;;;;-146.90;100.00;60518.97;5051764;28;20543;-71
2021/08/28 07:40:34;;;;;;;11.23;3.63;;;;;;;-146.90;100.00;60518.97;5051239;28;20047;-70
2021/08/28 07:42:59;;;;;;;18.17;4.72;;;;;;;-146.90;100.00;60518.97;5051551;28;20497;-70
2021/08/28 07:45:25;;;;;;;9.13;3.25;;;;;;;-146.90;100.00;60518.97;5051549;28;20421;-69
2021/08/28 07:47:51;;;;;;;10.63;3.85;;;;;;;-146.90;100.00;60518.97;5050092;28;20127;-70
2021/08/28 07:50:16;;;;;;;13.05;4.20;;;;;;;-146.90;100.00;60518.97;5050762;28;20171;-70
2021/08/28 07:52:43;;;;;;;12.77;4.68;;;;;;;-146.90;100.00;60518.97;5051264;28;20085;-70
2021/08/28 07:55:10;;;;;;;11.93;3.95;;;;;;;-146.90;100.00;60518.97;5033777;28;20017;-71
2021/08/28 07:57:36;;;;;;;13.52;4.20;;;;;;;-146.90;100.00;60518.97;5051221;28;20336;-70
2021/08/28 08:00:01;;;;;;;15.27;4.85;;;;;;;-146.90;100.00;60518.97;5051092;28;20110;-69
2021/08/28 08:02:26;;;;;;;9.43;3.63;;;;;;;-146.90;100.00;60518.97;5050863;28;20029;-69
2021/08/28 08:04:52;;;;;;;10.20;3.90;;;;;;;-146.90;100.00;60518.97;5050627;28;20029;-69
2021/08/28 08:07:17;;;;;;;10.55;3.80;;;;;;;-146.90;100.00;60518.97;5050750;28;20063;-69
2021/08/28 08:09:42;;;;;;;15.27;4.13;;;;;;;-146.90;100.00;60518.97;5050597;28;20032;-68
2021/08/28 08:12:08;;;;;;;13.07;4.60;;;;;;;-146.90;100.00;60518.97;5049971;28;20028;-72
2021/08/28 08:14:33;;;;;;;15.73;4.25;;;;;;;-146.90;100.00;60518.97;5050724;28;20036;-70
2021/08/28 08:16:59;;;;;;;9.18;3.70;;;;;;;-146.90;100.00;60518.97;5050516;28;20025;-69
2021/08/28 08:19:24;;;;;;;10.88;4.00;;;;;;;-146.90;100.00;60518.97;5049181;28;20386;-69
2021/08/28 08:21:50;;;;;;;23.00;5.03;;;;;;;-146.90;100.00;60518.97;5050650;28;20045;-70
2021/08/28 08:24:15;;;;;;;14.10;4.07;;;;;;;-146.90;100.00;60518.97;5050288;28;20029;-69
2021/08/28 08:26:40;;;;;;;15.32;4.30;;;;;;;-146.90;100.00;60518.97;5050519;28;20025;-69
2021/08/28 08:29:06;;;;;;;14.68;3.90;;;;;;;-146.90;100.00;60518.97;5050656;28;20025;-70
2021/08/28 08:31:31;;;;;;;13.45;3.90;;;;;;;-146.90;100.00;60518.97;5050709;28;20106;-69
2021/08/28 08:33:57;;;;;;;10.25;3.78;;;;;;;-146.90;100.00;60518.97;5051281;28;20533;-69
2021/08/28 08:36:22;;;;;;;10.15;3.67;;;;;;;-146.90;100.00;60518.97;5051781;28;20036;-71
2021/08/28 08:38:48;;;;;;;12.00;4.03;;;;;;;-146.90;100.00;60518.97;5051399;28;20091;-69
2021/08/28 08:41:14;;;;;;;9.77;3.88;;;;;;;-146.90;100.00;60518.97;5050200;28;20078;-70
2021/08/28 08:43:40;;;;;;;12.05;3.45;;;;;;;-146.90;100.00;60518.97;5050687;28;20071;-70
2021/08/28 08:46:07;;;;;;;12.10;3.63;;;;;;;-146.90;100.00;60518.97;5049918;28;20074;-70
2021/08/28 08:48:33;;;;;;;12.32;4.32;;;;;;;-146.90;100.00;60518.97;5050991;28;20032;-70
2021/08/28 08:50:59;;;;;;;14.45;4.68;;;;;;;-146.90;100.00;60518.97;5050753;28;20029;-71
2021/08/28 08:53:29;;;;;;;14.07;4.60;;;;;;;-146.90;100.00;60518.97;5050736;28;20110;-70
2021/08/28 08:55:55;;;;;;;12.77;3.97;;;;;;;-146.90;100.00;60518.97;5050802;28;20040;-69
2021/08/28 08:58:20;;;;;;;13.18;3.58;;;;;;;-146.90;100.00;60518.97;5049274;28;20367;-69
2021/08/28 09:00:46;;;;;;;9.90;3.75;;;;;;;-146.90;100.00;60518.97;5050643;28;20055;-71
2021/08/28 09:03:11;;;;;;;12.07;4.13;;;;;;;-146.90;100.00;60518.97;5049693;28;20439;-70
2021/08/28 09:05:37;;;;;;;9.10;3.75;;;;;;;-146.90;100.00;60518.97;5049269;28;20025;-71
2021/08/28 09:08:03;;;;;;;19.10;4.82;;;;;;;-146.90;100.00;60518.97;5049941;28;20498;-71
2021/08/28 09:10:28;;;;;;;13.65;4.57;;;;;;;-146.90;100.00;60518.97;5050559;28;20048;-69
2021/08/28 09:12:54;;;;;;;10.02;3.90;;;;;;;-146.90;100.00;60518.97;5049614;28;20098;-69
2021/08/28 09:15:19;;;;;;;11.73;3.95;;;;;;;-146.90;100.00;60518.97;5049060;28;20037;-69
2021/08/28 09:17:56;;;;;;;16.58;4.88;;;;;;;-146.90;100.00;60518.97;5049941;28;20052;-69
2021/08/28 09:20:23;;;;;;;14.82;4.90;;;;;;;-146.90;100.00;60518.97;5050283;28;20588;-69
2021/08/28 09:22:49;;;;;;;11.48;3.72;;;;;;;-146.90;100.00;60518.97;5047880;28;20032;-71
2021/08/28 09:25:23;;;;;;;11.20;4.13;;;;;;;-146.90;100.00;60518.97;5048420;28;20017;-69
2021/08/28 09:27:50;;;;;;;11.20;3.88;;;;;;;-146.90;100.00;60518.97;5049933;28;20100;-70
2021/08/28 09:30:24;;;;;;;8.65;4.15;;;;;;;-146.90;100.00;60518.97;5048729;28;20378;-71
2021/08/28 09:32:55;;;;;;;14.25;4.13;;;;;;;-146.90;100.00;60518.97;5048553;28;20041;-70
2021/08/28 09:35:29;;;;;;;13.80;4.63;;;;;;;-146.90;100.00;60518.97;5048574;28;20017;-70
2021/08/28 09:37:57;;;;;;;12.45;4.65;;;;;;;-146.90;100.00;60518.97;5050535;28;20017;-70
2021/08/28 09:40:24;;;;;;;15.35;4.88;;;;;;;-146.90;100.00;60518.97;5049892;28;20032;-70
2021/08/28 09:42:58;;;;;;;12.68;4.28;;;;;;;-146.90;100.00;60518.97;5048488;28;20043;-71
2021/08/28 09:45:25;;;;;;;9.57;4.40;;;;;;;-146.90;100.00;60518.97;5049421;28;20035;-70
2021/08/28 09:47:53;;;;;;;10.77;4.43;;;;;;;-146.90;100.00;60518.97;5050030;28;20422;-70
2021/08/28 09:50:39;;;;;;;12.35;4.20;;;;;;;-146.90;100.00;60518.97;5048980;28;20021;-71
2021/08/28 09:53:34;;;;;;;11.43;4.25;;;;;;;-146.90;100.00;60518.97;5048871;28;20648;-70
2021/08/28 09:56:02;;;;;;;10.52;4.43;;;;;;;-146.90;100.00;60518.97;5039498;28;20037;-70
2021/08/28 09:58:32;;;;;;;12.48;4.57;;;;;;;-146.90;100.00;60518.97;5047338;28;20104;-68
2021/08/28 10:01:05;;;;;;;9.15;4.50;;;;;;;-146.90;100.00;60518.97;5048810;28;20101;-70
2021/08/28 10:03:32;;;;;;;11.70;4.32;;;;;;;-146.90;100.00;60518.97;5047481;28;20071;-70
2021/08/28 10:05:58;;;;;;;11.98;4.50;;;;;;;-146.90;100.00;60518.97;5047023;28;20057;-70
2021/08/28 10:08:23;;;;;;;11.80;4.72;;;;;;;-146.90;100.00;60518.97;5048520;28;20075;-70
2021/08/28 10:10:49;;;;;;;10.05;4.30;;;;;;;-146.90;100.00;60518.97;5048412;28;20025;-70
2021/08/28 10:13:17;;;;;;;13.50;4.45;;;;;;;-146.90;100.00;60518.97;5048591;28;20033;-71
2021/08/28 10:15:43;;;;;;;15.90;4.63;;;;;;;-146.90;100.00;60518.97;5047476;28;20076;-69
2021/08/28 10:18:10;;;;;;;10.75;4.38;;;;;;;-146.90;100.00;60518.97;5047820;28;20389;-70
2021/08/28 10:20:35;;;;;;;12.95;4.20;;;;;;;-146.90;100.00;60518.97;5049070;28;20082;-70
2021/08/28 10:23:03;;;;;;;9.40;4.18;;;;;;;-146.90;100.00;60518.97;5049205;28;20033;-70
2021/08/28 10:25:30;;;;;;;9.02;4.00;;;;;;;-146.90;100.00;60518.97;5049099;28;20020;-71
2021/08/28 10:27:56;;;;;;;10.57;4.22;;;;;;;-146.90;100.00;60518.97;5047546;28;20082;-69
2021/08/28 10:30:23;;;;;;;10.68;4.32;;;;;;;-146.90;100.00;60518.97;5049859;28;20024;-70
2021/08/28 10:32:50;;;;;;;12.85;4.38;;;;;;;-146.90;100.00;60518.97;5048547;28;20028;-70
2021/08/28 10:35:17;;;;;;;12.35;3.83;;;;;;;-146.90;100.00;60518.97;5048937;28;20079;-71
2021/08/28 10:37:43;;;;;;;9.57;4.20;;;;;;;-146.90;100.00;60518.97;5052998;28;20419;-71
2021/08/28 10:40:13;;;;;;;14.38;4.63;;;;;;;-146.90;100.00;60518.97;5052983;28;20078;-71
2021/08/28 10:42:40;;;;;;;12.38;4.30;;;;;;;-146.90;100.00;60518.97;5034603;28;20163;-70
2021/08/28 10:45:07;;;;;;;13.18;4.38;;;;;;;-146.90;100.00;60518.97;5051859;28;20024;-70
2021/08/28 10:47:32;;;;;;;10.20;4.22;;;;;;;-146.90;100.00;60518.97;5050739;28;20029;-68
2021/08/28 10:50:16;;;;;;;10.63;4.32;;;;;;;-146.90;100.00;60518.97;5052217;28;20036;-69
2021/08/28 10:52:48;;;;;;;13.00;4.20;;;;;;;-146.90;100.00;60518.97;5051650;28;20458;-70
2021/08/28 10:55:14;;;;;;;11.02;4.15;;;;;;;-146.90;100.00;60518.97;5052320;28;20024;-70
2021/08/28 10:57:40;;;;;;;7.82;4.13;;;;;;;-146.90;100.00;60518.97;5051800;28;20025;-69
2021/08/28 11:00:15;;;;;;;9.88;4.18;;;;;;;-146.90;100.00;60518.97;5052322;28;20029;-69